Time;durP1;ratioP1;P1;durP2;ratioP2;P2;SDS_P1;SDS_P2;PMS_P1;PMS_P2;Temp;Humidity;BMP_temperature;BMP_pressure;BME280_temperature;BME280_humidity;BME280_pressure;Samples;Min_cycle;Max_cycle;Signal;HPM_P1;HPM_P2
2023/07/27 00:01:34;;;;;;;10.48;6.22;;;13.00;99.90;;;;;;5032859;28;20049;-71
2023/07/27 00:04:00;;;;;;;11.63;6.05;;;13.10;99.90;;;;;;5032890;28;20041;-72
2023/07/27 00:06:26;;;;;;;10.68;6.30;;;13.10;99.90;;;;;;5032669;28;20493;-73
2023/07/27 00:08:56;;;;;;;12.18;6.63;;;14.50;99.90;;;;;;5033398;28;20053;-73
2023/07/27 00:11:22;;;;;;;10.75;6.35;;;13.10;99.90;;;;;;5016456;28;20041;-73
2023/07/27 00:13:48;;;;;;;11.65;6.15;;;13.20;99.90;;;;;;5021808;28;20164;-70
2023/07/27 00:16:14;;;;;;;11.40;6.38;;;13.30;99.90;;;;;;5025916;28;20136;-71
2023/07/27 00:18:39;;;;;;;9.98;6.13;;;13.20;99.90;;;;;;5033640;28;20057;-70
2023/07/27 00:21:05;;;;;;;9.80;5.90;;;13.30;99.90;;;;;;5015348;28;20048;-71
2023/07/27 00:23:31;;;;;;;10.70;6.50;;;13.20;99.90;;;;;;5015591;28;20033;-71
2023/07/27 00:25:56;;;;;;;12.38;6.45;;;13.20;99.90;;;;;;5015505;28;20393;-71
2023/07/27 00:28:22;;;;;;;13.23;6.35;;;13.20;99.90;;;;;;5032870;28;20060;-71
2023/07/27 00:30:52;;;;;;;12.10;7.00;;;13.20;99.90;;;;;;5015371;28;20046;-71
2023/07/27 00:33:18;;;;;;;13.98;6.82;;;13.30;99.90;;;;;;5001155;28;20049;-71
2023/07/27 00:35:56;;;;;;;12.25;6.57;;;13.30;99.90;;;;;;5014973;28;20041;-71
2023/07/27 00:38:22;;;;;;;11.35;6.90;;;13.30;99.90;;;;;;5015965;28;20072;-71
2023/07/27 00:40:48;;;;;;;10.77;6.65;;;13.30;99.90;;;;;;5015699;28;20131;-71
2023/07/27 00:43:17;;;;;;;11.70;6.38;;;13.30;99.90;;;;;;5032899;28;20152;-72
2023/07/27 00:45:43;;;;;;;9.98;6.43;;;13.30;99.90;;;;;;5014973;28;20120;-71
2023/07/27 00:48:12;;;;;;;13.10;6.45;;;13.30;99.90;;;;;;5015851;28;20053;-71
2023/07/27 00:50:38;;;;;;;11.23;7.18;;;13.30;99.90;;;;;;5014954;28;20077;-71
2023/07/27 00:53:06;;;;;;;11.27;6.25;;;13.30;99.90;;;;;;5016057;28;20119;-71
2023/07/27 00:55:33;;;;;;;13.55;7.13;;;13.30;99.90;;;;;;5032773;28;20056;-71
2023/07/27 00:58:02;;;;;;;11.82;6.65;;;13.40;99.90;;;;;;5014841;28;20045;-71
2023/07/27 01:00:30;;;;;;;9.95;6.22;;;13.40;99.90;;;;;;5015211;28;20560;-70
2023/07/27 01:02:56;;;;;;;10.45;6.15;;;13.40;99.90;;;;;;5014780;28;20512;-72
2023/07/27 01:05:22;;;;;;;10.05;5.78;;;13.40;99.90;;;;;;5015557;28;20045;-72
2023/07/27 01:07:48;;;;;;;10.23;6.15;;;13.30;99.90;;;;;;5032621;28;20045;-72
2023/07/27 01:10:13;;;;;;;11.15;5.75;;;13.20;99.90;;;;;;5032376;28;20124;-72
2023/07/27 01:12:52;;;;;;;9.20;5.97;;;13.30;99.90;;;;;;5015089;28;20045;-72
2023/07/27 01:15:22;;;;;;;12.25;6.35;;;13.30;99.90;;;;;;5052722;28;20084;-72
2023/07/27 01:18:06;;;;;;;10.95;5.80;;;13.30;99.90;;;;;;5034168;28;20461;-72
2023/07/27 01:20:46;;;;;;;11.15;5.63;;;13.30;99.90;;;;;;5033576;28;20059;-72
2023/07/27 01:23:21;;;;;;;10.00;5.65;;;13.30;99.90;;;;;;5037605;28;20041;-72
2023/07/27 01:26:24;;;;;;;8.43;5.13;;;13.30;99.90;;;;;;5031685;28;20053;-72
2023/07/27 01:29:02;;;;;;;7.28;4.55;;;13.30;99.90;;;;;;5032141;28;20057;-72
2023/07/27 01:31:32;;;;;;;10.93;5.85;;;13.30;99.90;;;;;;5013902;28;20037;-72
2023/07/27 01:34:06;;;;;;;11.00;5.75;;;13.30;99.90;;;;;;5014674;28;20047;-72
2023/07/27 01:36:38;;;;;;;10.10;5.45;;;13.30;99.90;;;;;;5031508;28;20568;-72
2023/07/27 01:39:11;;;;;;;9.38;5.55;;;13.30;99.90;;;;;;5032235;28;20112;-72
2023/07/27 01:41:41;;;;;;;9.75;5.32;;;13.30;99.90;;;;;;5031668;28;20397;-72
2023/07/27 01:44:09;;;;;;;8.93;5.30;;;13.40;99.90;;;;;;5014528;28;20037;-73
2023/07/27 01:46:36;;;;;;;8.07;5.10;;;13.30;99.90;;;;;;5012928;28;20048;-72
2023/07/27 01:49:04;;;;;;;7.72;5.15;;;13.30;99.90;;;;;;5014861;28;20060;-72
2023/07/27 01:51:31;;;;;;;9.52;4.97;;;13.40;99.90;;;;;;5051268;28;20041;-73
2023/07/27 01:53:57;;;;;;;9.23;5.78;;;13.50;99.90;;;;;;5046438;28;20128;-72
2023/07/27 01:56:30;;;;;;;9.05;5.43;;;13.40;99.90;;;;;;5015111;28;20037;-74
2023/07/27 01:58:57;;;;;;;8.93;5.45;;;13.40;99.90;;;;;;5032254;28;20103;-72
2023/07/27 02:01:23;;;;;;;8.43;5.45;;;13.50;99.90;;;;;;5014140;28;20038;-72
2023/07/27 02:03:50;;;;;;;7.95;4.85;;;13.50;99.90;;;;;;5014085;28;20049;-72
2023/07/27 02:06:15;;;;;;;9.60;5.55;;;13.50;99.90;;;;;;5020377;28;20037;-72
2023/07/27 02:08:41;;;;;;;11.73;5.50;;;13.50;99.90;;;;;;5033728;28;20500;-72
2023/07/27 02:11:09;;;;;;;9.43;5.38;;;13.40;99.90;;;;;;5014366;28;20077;-72
2023/07/27 02:13:41;;;;;;;9.18;5.63;;;13.50;99.90;;;;;;5039114;28;20088;-72
2023/07/27 02:16:19;;;;;;;11.75;6.13;;;13.50;99.90;;;;;;5033887;28;20511;-72
2023/07/27 02:18:47;;;;;;;10.32;5.75;;;13.40;99.90;;;;;;5051901;28;20045;-72
2023/07/27 02:21:14;;;;;;;10.18;6.05;;;13.40;99.90;;;;;;5033562;28;20041;-72
2023/07/27 02:23:40;;;;;;;8.57;5.45;;;13.40;99.90;;;;;;5033317;28;20057;-72
2023/07/27 02:26:06;;;;;;;9.75;5.57;;;13.40;99.90;;;;;;5051595;28;20044;-73
2023/07/27 02:28:36;;;;;;;10.18;5.75;;;13.50;99.90;;;;;;5050866;28;20120;-72
2023/07/27 02:31:02;;;;;;;10.40;6.28;;;13.50;99.90;;;;;;5052050;28;20441;-72
2023/07/27 02:33:27;;;;;;;8.55;5.60;;;13.50;99.90;;;;;;5033270;28;20048;-72
2023/07/27 02:35:55;;;;;;;10.00;5.55;;;13.50;99.90;;;;;;5052981;28;20148;-72
2023/07/27 02:38:20;;;;;;;10.02;5.85;;;13.60;99.90;;;;;;5037589;28;20057;-73
2023/07/27 02:40:46;;;;;;;12.02;5.85;;;13.60;99.90;;;;;;5054962;28;20052;-72
2023/07/27 02:43:12;;;;;;;10.82;5.63;;;13.70;99.90;;;;;;5037028;28;20045;-72
2023/07/27 02:45:37;;;;;;;8.73;5.40;;;13.70;99.90;;;;;;5055430;28;20178;-72
2023/07/27 02:48:03;;;;;;;9.93;5.60;;;13.70;99.90;;;;;;5054599;28;20420;-72
2023/07/27 02:50:29;;;;;;;9.23;5.50;;;13.70;99.90;;;;;;5054934;28;20645;-72
2023/07/27 02:52:54;;;;;;;10.90;5.25;;;13.80;99.90;;;;;;5037521;28;20052;-72
2023/07/27 02:55:20;;;;;;;9.93;5.30;;;13.80;99.90;;;;;;5037092;28;20515;-71
2023/07/27 02:57:48;;;;;;;11.20;5.65;;;13.90;99.90;;;;;;5054126;28;20041;-72
2023/07/27 03:00:14;;;;;;;10.20;6.25;;;13.90;99.90;;;;;;5037720;28;20049;-72
2023/07/27 03:02:40;;;;;;;8.93;5.20;;;14.00;99.90;;;;;;5036373;28;20420;-71
2023/07/27 03:05:06;;;;;;;9.85;6.10;;;14.10;99.90;;;;;;5037125;28;20077;-72
2023/07/27 03:07:32;;;;;;;8.65;5.32;;;14.00;99.90;;;;;;5037054;28;20076;-72
2023/07/27 03:09:58;;;;;;;11.80;6.68;;;14.00;99.90;;;;;;5036364;28;20056;-72
2023/07/27 03:12:24;;;;;;;10.73;6.28;;;14.00;99.90;;;;;;5036710;28;20484;-72
2023/07/27 03:14:49;;;;;;;10.35;5.80;;;14.00;99.90;;;;;;5054641;28;20053;-72
2023/07/27 03:17:15;;;;;;;10.68;6.47;;;14.00;99.90;;;;;;5036634;28;20467;-72
2023/07/27 03:19:41;;;;;;;10.00;5.93;;;14.00;99.90;;;;;;5036956;28;20048;-73
2023/07/27 03:22:06;;;;;;;11.77;5.90;;;13.90;99.90;;;;;;5031350;28;20077;-73
2023/07/27 03:24:33;;;;;;;13.43;6.05;;;13.90;99.90;;;;;;5020914;28;20045;-73
2023/07/27 03:26:58;;;;;;;9.57;6.22;;;13.90;99.90;;;;;;5027970;28;20087;-70
2023/07/27 03:29:24;;;;;;;10.57;6.20;;;13.90;99.90;;;;;;5017289;28;20402;-70
2023/07/27 03:31:50;;;;;;;11.15;6.38;;;13.90;99.90;;;;;;5016354;28;20449;-71
2023/07/27 03:34:16;;;;;;;9.98;5.85;;;13.90;99.90;;;;;;5016976;28;20068;-70
2023/07/27 03:36:42;;;;;;;12.13;6.35;;;13.90;99.90;;;;;;5038089;28;20036;-71
2023/07/27 03:39:08;;;;;;;9.98;6.32;;;13.90;99.90;;;;;;5016663;28;20167;-70
2023/07/27 03:41:33;;;;;;;11.57;6.47;;;13.90;99.90;;;;;;5034430;28;20042;-70
2023/07/27 03:44:02;;;;;;;13.50;6.93;;;13.90;99.90;;;;;;5034622;28;20052;-70
2023/07/27 03:46:28;;;;;;;12.68;6.60;;;14.00;99.90;;;;;;5015243;28;20049;-70
2023/07/27 03:48:54;;;;;;;12.25;6.97;;;14.10;99.90;;;;;;5054229;28;20167;-71
2023/07/27 03:51:19;;;;;;;13.25;7.00;;;14.00;99.90;;;;;;5054194;28;20527;-71
2023/07/27 03:53:45;;;;;;;10.43;7.03;;;14.00;99.90;;;;;;5050430;28;20039;-71
2023/07/27 03:56:11;;;;;;;11.10;6.75;;;14.00;99.90;;;;;;5019021;28;20045;-72
2023/07/27 03:58:36;;;;;;;12.85;7.55;;;14.10;99.90;;;;;;5035377;28;20099;-71
2023/07/27 04:01:02;;;;;;;11.90;7.10;;;14.10;99.90;;;;;;5036171;28;20447;-71
2023/07/27 04:03:28;;;;;;;12.88;7.40;;;14.10;99.90;;;;;;5054096;28;20037;-71
2023/07/27 04:05:54;;;;;;;14.05;8.07;;;14.20;99.90;;;;;;5034849;28;20095;-71
2023/07/27 04:08:20;;;;;;;13.63;8.07;;;14.20;99.90;;;;;;5032545;28;20444;-72
2023/07/27 04:10:49;;;;;;;16.27;8.98;;;14.30;99.90;;;;;;5035768;28;20041;-73
2023/07/27 04:13:14;;;;;;;11.05;7.07;;;14.20;99.90;;;;;;5051384;28;20049;-72
2023/07/27 04:15:40;;;;;;;11.70;6.65;;;14.30;99.90;;;;;;5035448;28;20416;-72
2023/07/27 04:18:06;;;;;;;10.38;7.07;;;14.40;99.90;;;;;;5036180;28;20391;-71
2023/07/27 04:20:32;;;;;;;11.73;7.22;;;14.40;99.90;;;;;;5035264;28;20040;-72
2023/07/27 04:22:57;;;;;;;11.68;7.68;;;14.40;99.90;;;;;;5035871;28;20148;-71
2023/07/27 04:25:24;;;;;;;14.77;8.77;;;14.40;99.90;;;;;;5053664;28;20047;-72
2023/07/27 04:27:50;;;;;;;16.17;8.68;;;14.30;99.90;;;;;;5033942;28;20045;-72
2023/07/27 04:30:17;;;;;;;17.55;7.57;;;14.30;99.90;;;;;;5053512;28;20523;-71
2023/07/27 04:32:43;;;;;;;17.38;8.63;;;14.30;99.90;;;;;;5035717;28;20064;-73
2023/07/27 04:35:09;;;;;;;11.90;7.75;;;14.30;99.90;;;;;;5034892;28;20072;-70
2023/07/27 04:37:38;;;;;;;15.23;8.55;;;14.30;99.90;;;;;;5035195;28;20045;-70
2023/07/27 04:40:04;;;;;;;13.60;8.73;;;14.40;99.90;;;;;;5035750;28;20099;-70
2023/07/27 04:42:30;;;;;;;14.90;8.00;;;14.30;99.90;;;;;;5052191;28;20041;-71
2023/07/27 04:44:56;;;;;;;12.88;8.15;;;14.30;99.90;;;;;;5052504;28;20384;-70
2023/07/27 04:47:22;;;;;;;13.02;7.07;;;14.30;99.90;;;;;;5053289;28;20076;-70
2023/07/27 04:49:47;;;;;;;14.30;7.88;;;14.30;99.90;;;;;;5034676;28;20080;-70
2023/07/27 04:52:13;;;;;;;14.65;7.60;;;14.30;99.90;;;;;;5053161;28;20511;-70
2023/07/27 04:54:42;;;;;;;15.18;8.20;;;14.30;99.90;;;;;;5034606;28;20060;-70
2023/07/27 04:57:08;;;;;;;15.93;8.52;;;14.30;99.90;;;;;;5034351;28;20043;-70
2023/07/27 04:59:40;;;;;;;13.40;8.48;;;14.30;99.90;;;;;;5019511;28;20397;-72
2023/07/27 05:02:06;;;;;;;15.45;7.50;;;14.10;99.90;;;;;;5032780;28;20044;-71
2023/07/27 05:04:31;;;;;;;12.50;8.23;;;14.30;99.90;;;;;;5015211;28;20045;-71
2023/07/27 05:07:00;;;;;;;13.55;8.93;;;14.30;99.90;;;;;;5023140;28;20060;-71
2023/07/27 05:09:29;;;;;;;16.20;9.70;;;14.30;99.90;;;;;;5044181;28;20029;-71
2023/07/27 05:11:58;;;;;;;14.45;8.20;;;14.20;99.90;;;;;;5032278;28;20135;-72
2023/07/27 05:14:23;;;;;;;16.08;7.60;;;14.30;99.90;;;;;;5045252;28;20065;-72
2023/07/27 05:16:49;;;;;;;14.77;8.02;;;14.30;99.90;;;;;;5031820;28;20053;-72
2023/07/27 05:19:15;;;;;;;14.73;8.60;;;14.30;99.90;;;;;;5032350;28;20128;-72
2023/07/27 05:21:40;;;;;;;14.02;8.82;;;14.30;99.90;;;;;;5032342;28;20126;-73
2023/07/27 05:24:06;;;;;;;14.55;8.52;;;14.30;99.90;;;;;;5013692;28;20063;-73
2023/07/27 05:26:34;;;;;;;11.15;7.00;;;14.30;99.90;;;;;;5014774;28;20144;-72
2023/07/27 05:29:00;;;;;;;14.23;8.85;;;14.40;99.90;;;;;;5033750;28;20052;-73
2023/07/27 05:31:26;;;;;;;14.15;8.55;;;14.40;99.90;;;;;;5032611;28;20041;-72
2023/07/27 05:33:51;;;;;;;13.23;8.50;;;14.30;99.90;;;;;;5032488;28;20456;-72
2023/07/27 05:36:17;;;;;;;11.85;7.45;;;14.30;99.90;;;;;;5014765;28;20072;-72
2023/07/27 05:38:43;;;;;;;12.25;7.85;;;14.30;99.90;;;;;;5014018;28;20072;-72
2023/07/27 05:41:11;;;;;;;13.07;7.82;;;14.30;99.90;;;;;;5032714;28;20478;-72
2023/07/27 05:43:37;;;;;;;12.43;8.18;;;14.30;99.90;;;;;;5014670;28;20524;-73
2023/07/27 05:46:06;;;;;;;13.57;8.27;;;14.30;99.90;;;;;;5013616;28;20072;-72
2023/07/27 05:48:33;;;;;;;13.13;7.43;;;14.30;99.90;;;;;;5014254;28;20037;-72
2023/07/27 05:50:59;;;;;;;13.23;7.50;;;14.30;99.90;;;;;;5014497;28;20049;-72
2023/07/27 05:53:25;;;;;;;14.40;7.85;;;14.40;99.90;;;;;;5031828;28;20041;-72
2023/07/27 05:55:51;;;;;;;12.55;7.80;;;14.40;99.90;;;;;;5014202;28;20037;-72
2023/07/27 05:58:16;;;;;;;12.10;7.60;;;14.40;99.90;;;;;;5013961;28;20102;-72
2023/07/27 06:00:42;;;;;;;14.63;8.68;;;14.40;99.90;;;;;;5032018;28;20107;-72
2023/07/27 06:03:07;;;;;;;14.15;9.05;;;14.40;99.90;;;;;;5032187;28;20451;-72
2023/07/27 06:05:33;;;;;;;13.15;7.93;;;14.30;99.90;;;;;;5030072;28;20053;-72
2023/07/27 06:07:59;;;;;;;12.25;7.40;;;14.40;99.90;;;;;;5031755;28;20037;-73
2023/07/27 06:10:24;;;;;;;12.73;8.13;;;14.30;99.90;;;;;;5035251;28;20124;-72
2023/07/27 06:12:50;;;;;;;14.23;8.20;;;14.30;99.90;;;;;;5037097;28;20075;-72
2023/07/27 06:15:16;;;;;;;13.80;7.40;;;14.30;99.90;;;;;;5037117;28;20057;-72
2023/07/27 06:17:41;;;;;;;11.32;7.53;;;14.40;99.90;;;;;;5055893;28;20037;-72
2023/07/27 06:20:08;;;;;;;10.75;7.00;;;14.30;99.90;;;;;;5037566;28;20048;-72
2023/07/27 06:22:36;;;;;;;12.10;6.78;;;14.40;99.90;;;;;;5055614;28;20041;-72
2023/07/27 06:25:02;;;;;;;9.63;6.40;;;14.40;99.90;;;;;;5055830;28;20439;-72
2023/07/27 06:27:27;;;;;;;10.73;6.78;;;14.50;99.90;;;;;;5037568;28;20098;-72
2023/07/27 06:29:53;;;;;;;9.15;5.82;;;14.50;99.90;;;;;;5055849;28;20036;-72
2023/07/27 06:32:19;;;;;;;7.93;5.18;;;14.60;99.90;;;;;;5054790;28;20098;-72
2023/07/27 06:34:51;;;;;;;9.20;5.35;;;14.60;99.90;;;;;;5054897;28;20385;-72
2023/07/27 06:37:18;;;;;;;8.95;5.53;;;14.70;99.90;;;;;;5055738;28;20029;-72
2023/07/27 06:39:48;;;;;;;8.88;5.95;;;14.70;99.90;;;;;;5037238;28;20102;-71
2023/07/27 06:42:14;;;;;;;7.93;5.30;;;14.80;99.90;;;;;;5036651;28;20056;-72
2023/07/27 06:44:39;;;;;;;8.70;5.60;;;14.80;99.90;;;;;;5055321;28;20112;-71
2023/07/27 06:47:05;;;;;;;9.32;6.10;;;14.80;99.90;;;;;;5055654;28;20076;-71
2023/07/27 06:49:31;;;;;;;8.80;5.88;;;14.90;99.90;;;;;;5036978;28;20124;-72
2023/07/27 06:52:08;;;;;;;9.80;5.70;;;15.90;99.90;;;;;;5051846;28;20119;-72
2023/07/27 06:54:36;;;;;;;9.23;5.65;;;15.80;99.90;;;;;;5042874;28;20120;-72
2023/07/27 06:57:07;;;;;;;8.27;5.03;;;15.00;99.90;;;;;;5017816;28;20058;-72
2023/07/27 06:59:33;;;;;;;7.28;4.97;;;15.10;99.90;;;;;;5017595;28;20103;-72
2023/07/27 07:01:59;;;;;;;8.38;5.05;;;15.20;99.90;;;;;;5016819;28;20505;-72
2023/07/27 07:04:25;;;;;;;8.20;5.47;;;15.10;99.90;;;;;;5017136;28;20049;-72
2023/07/27 07:06:51;;;;;;;8.18;4.80;;;15.20;99.90;;;;;;5025571;28;20396;-72
2023/07/27 07:09:21;;;;;;;8.23;4.95;;;15.30;99.90;;;;;;5036978;28;20385;-72
2023/07/27 07:11:48;;;;;;;8.40;4.90;;;15.40;99.90;;;;;;5031889;28;20044;-72
2023/07/27 07:14:14;;;;;;;8.60;5.50;;;15.50;99.90;;;;;;5035693;28;20058;-72
2023/07/27 07:16:40;;;;;;;10.32;5.50;;;15.60;99.90;;;;;;5034532;28;20595;-72
2023/07/27 07:19:05;;;;;;;6.68;4.10;;;15.70;99.90;;;;;;5035640;28;20045;-72
2023/07/27 07:21:31;;;;;;;8.98;5.85;;;15.10;99.90;;;;;;5049873;28;20118;-72
2023/07/27 07:23:59;;;;;;;6.07;3.78;;;15.70;99.90;;;;;;5033891;28;20084;-72
2023/07/27 07:26:25;;;;;;;7.43;4.68;;;15.80;99.90;;;;;;5026054;28;20421;-72
2023/07/27 07:28:51;;;;;;;10.32;4.90;;;15.80;99.90;;;;;;5035352;28;20454;-72
2023/07/27 07:31:17;;;;;;;7.95;5.10;;;15.90;99.90;;;;;;5052342;28;20095;-72
2023/07/27 07:33:46;;;;;;;7.32;4.15;;;15.80;99.90;;;;;;5035294;28;20084;-72
2023/07/27 07:36:14;;;;;;;6.25;3.92;;;15.90;99.90;;;;;;5053180;28;20670;-72
2023/07/27 07:38:40;;;;;;;7.03;4.13;;;16.00;99.90;;;;;;5048507;28;20048;-72
2023/07/27 07:41:11;;;;;;;5.75;4.15;;;16.00;99.90;;;;;;5053197;28;20041;-71
2023/07/27 07:43:39;;;;;;;6.35;3.90;;;16.10;99.90;;;;;;5041111;28;20096;-72
2023/07/27 07:46:13;;;;;;;6.53;4.22;;;16.10;99.90;;;;;;5020065;28;20076;-71
2023/07/27 07:48:41;;;;;;;8.70;5.03;;;16.00;99.90;;;;;;5034370;28;20095;-72
2023/07/27 07:51:11;;;;;;;6.60;3.90;;;16.00;99.90;;;;;;5016592;28;20033;-72
2023/07/27 07:53:37;;;;;;;6.10;3.85;;;16.00;99.90;;;;;;5031217;28;20430;-72
2023/07/27 07:56:12;;;;;;;6.03;4.03;;;16.10;99.90;;;;;;5052814;28;20033;-72
2023/07/27 07:58:39;;;;;;;7.63;3.47;;;16.10;99.90;;;;;;5051886;28;20360;-72
2023/07/27 08:01:04;;;;;;;7.70;3.80;;;16.10;99.90;;;;;;5052801;28;20484;-71
2023/07/27 08:03:33;;;;;;;5.47;4.03;;;16.10;99.90;;;;;;5034929;28;20045;-72
2023/07/27 08:05:58;;;;;;;5.40;3.65;;;16.00;99.90;;;;;;5033969;28;20041;-71
2023/07/27 08:08:24;;;;;;;5.50;3.50;;;16.00;99.90;;;;;;5033979;28;20045;-72
2023/07/27 08:10:50;;;;;;;6.28;3.20;;;16.00;99.90;;;;;;5042938;28;20037;-72
2023/07/27 08:13:16;;;;;;;3.72;2.65;;;15.90;99.90;;;;;;5036119;28;20060;-72
2023/07/27 08:15:52;;;;;;;3.97;2.40;;;15.80;99.90;;;;;;5035125;28;20052;-72
2023/07/27 08:18:17;;;;;;;3.88;2.45;;;15.80;99.90;;;;;;5053278;28;20041;-72
2023/07/27 08:21:00;;;;;;;3.75;2.22;;;15.70;99.90;;;;;;5052148;28;20456;-72
2023/07/27 08:23:29;;;;;;;4.57;2.45;;;15.70;99.90;;;;;;5034837;28;20124;-72
2023/07/27 08:25:56;;;;;;;3.75;2.50;;;15.70;99.90;;;;;;5052296;28;20044;-72
2023/07/27 08:28:22;;;;;;;3.85;2.80;;;15.70;99.90;;;;;;5035032;28;20049;-72
2023/07/27 08:30:48;;;;;;;4.70;2.90;;;15.70;99.90;;;;;;5035087;28;20060;-72
2023/07/27 08:33:17;;;;;;;4.00;2.70;;;15.70;99.90;;;;;;5030264;28;20049;-72
2023/07/27 08:35:43;;;;;;;3.83;2.58;;;15.70;99.90;;;;;;5034359;28;20041;-72
2023/07/27 08:38:12;;;;;;;4.03;2.60;;;15.70;99.90;;;;;;5034905;28;20076;-72
2023/07/27 08:40:40;;;;;;;6.88;2.60;;;15.60;99.90;;;;;;5051613;28;20053;-72
2023/07/27 08:43:08;;;;;;;5.07;2.83;;;15.60;99.90;;;;;;5037975;28;20044;-73
2023/07/27 08:45:40;;;;;;;4.13;2.40;;;15.60;99.90;;;;;;5047896;28;20041;-72
2023/07/27 08:48:06;;;;;;;4.05;2.50;;;15.60;99.90;;;;;;5052296;28;20473;-72
2023/07/27 08:50:36;;;;;;;4.15;2.45;;;15.70;99.90;;;;;;5034637;28;20128;-72
2023/07/27 08:53:02;;;;;;;5.18;2.80;;;15.60;99.90;;;;;;5053404;28;20489;-72
2023/07/27 08:55:28;;;;;;;5.78;3.50;;;15.60;99.90;;;;;;5052608;28;20120;-73
2023/07/27 08:57:55;;;;;;;4.78;3.22;;;15.60;99.90;;;;;;5052888;28;20558;-72
2023/07/27 09:00:21;;;;;;;4.75;3.28;;;15.70;99.90;;;;;;5053390;28;20506;-72
2023/07/27 09:02:47;;;;;;;5.32;3.60;;;15.60;99.90;;;;;;5034840;28;20480;-73
2023/07/27 09:05:13;;;;;;;4.32;3.28;;;15.60;99.90;;;;;;5052510;28;20048;-72
2023/07/27 09:07:42;;;;;;;4.95;3.13;;;15.70;99.90;;;;;;5052536;28;20417;-73
2023/07/27 09:10:11;;;;;;;4.43;3.10;;;15.80;99.90;;;;;;5052104;28;20088;-74
2023/07/27 09:12:37;;;;;;;5.05;3.45;;;15.90;99.90;;;;;;5052398;28;20088;-72
2023/07/27 09:15:15;;;;;;;4.85;3.30;;;15.90;99.90;;;;;;5052061;28;20053;-73
2023/07/27 09:17:42;;;;;;;4.25;3.40;;;16.00;99.90;;;;;;5052332;28;20049;-73
2023/07/27 09:20:12;;;;;;;5.57;3.60;;;16.00;99.90;;;;;;5034943;28;20052;-72
2023/07/27 09:22:40;;;;;;;4.85;3.67;;;16.00;99.90;;;;;;5033565;28;20127;-72
2023/07/27 09:25:07;;;;;;;6.15;3.92;;;16.10;99.90;;;;;;5052801;28;20466;-74
2023/07/27 09:27:43;;;;;;;5.03;3.80;;;16.20;99.90;;;;;;5034637;28;20107;-73
2023/07/27 09:30:10;;;;;;;;;;;16.30;99.90;;;;;;5051101;28;20052;-73
2023/07/27 09:32:36;;;;;;;7.22;3.92;;;16.40;99.90;;;;;;5052306;28;19920;-73
2023/07/27 09:35:02;;;;;;;6.47;3.70;;;16.50;99.90;;;;;;5052658;28;20140;-73
2023/07/27 09:37:31;;;;;;;4.50;3.33;;;16.60;99.90;;;;;;5051607;28;20050;-73
2023/07/27 09:40:26;;;;;;;5.20;3.75;;;16.60;99.90;;;;;;5052104;28;20048;-73
2023/07/27 09:42:52;;;;;;;4.57;3.55;;;16.60;99.90;;;;;;5017418;28;20061;-73
2023/07/27 09:45:21;;;;;;;6.07;4.15;;;16.60;99.90;;;;;;5051254;28;20049;-73
2023/07/27 09:47:48;;;;;;;5.10;3.80;;;16.60;99.90;;;;;;5052030;28;20041;-73
2023/07/27 09:50:14;;;;;;;5.65;3.80;;;16.60;99.90;;;;;;5033182;28;20048;-73
2023/07/27 09:52:46;;;;;;;4.82;3.70;;;16.60;99.90;;;;;;5034069;28;20064;-74
2023/07/27 09:55:14;;;;;;;5.45;4.25;;;16.60;99.90;;;;;;5051857;28;20511;-72
2023/07/27 09:57:42;;;;;;;5.80;4.15;;;16.70;99.90;;;;;;5051491;28;20045;-72
2023/07/27 10:00:09;;;;;;;5.80;4.63;;;16.70;99.90;;;;;;5033807;28;20052;-73
2023/07/27 10:02:35;;;;;;;5.75;4.38;;;16.80;99.90;;;;;;5051639;28;20049;-73
2023/07/27 10:05:03;;;;;;;5.50;4.40;;;16.80;99.90;;;;;;5051117;28;20059;-71
2023/07/27 10:07:32;;;;;;;5.90;4.30;;;16.90;99.90;;;;;;5051705;28;20056;-71
2023/07/27 10:10:38;;;;;;;5.47;4.10;;;17.10;99.90;;;;;;5050855;28;20060;-72
2023/07/27 10:13:25;;;;;;;5.65;4.13;;;17.20;99.90;;;;;;5029863;28;20115;-71
2023/07/27 10:15:56;;;;;;;5.47;4.25;;;17.30;99.90;;;;;;5015946;28;20148;-72
2023/07/27 10:18:24;;;;;;;5.93;4.45;;;17.30;99.90;;;;;;5051769;28;20125;-72
2023/07/27 10:20:51;;;;;;;5.70;4.20;;;17.40;99.90;;;;;;5033397;28;20222;-72
2023/07/27 10:23:27;;;;;;;4.88;4.20;;;17.30;99.90;;;;;;5052028;28;20607;-72
2023/07/27 10:25:56;;;;;;;4.78;3.78;;;17.40;99.90;;;;;;5050630;28;20060;-72
2023/07/27 10:28:37;;;;;;;5.00;3.63;;;17.40;99.90;;;;;;5034201;28;20071;-72
2023/07/27 10:31:27;;;;;;;4.80;3.85;;;17.50;99.90;;;;;;5034847;28;20064;-72
2023/07/27 10:34:02;;;;;;;5.35;3.97;;;17.50;99.90;;;;;;5021160;28;20061;-72
2023/07/27 10:36:46;;;;;;;5.30;4.53;;;17.40;99.90;;;;;;5051325;28;20056;-72
2023/07/27 10:39:15;;;;;;;5.35;4.13;;;17.40;99.90;;;;;;5051428;28;20136;-73
2023/07/27 10:42:06;;;;;;;5.30;4.50;;;17.40;99.90;;;;;;5033170;28;20053;-74
2023/07/27 10:44:55;;;;;;;6.05;3.30;;;17.40;99.90;;;;;;5033350;28;20041;-74
2023/07/27 10:47:26;;;;;;;5.25;4.30;;;17.60;99.90;;;;;;5033616;28;20088;-73
2023/07/27 10:49:58;;;;;;;5.07;4.15;;;17.70;99.90;;;;;;5033774;28;20056;-71
2023/07/27 10:52:29;;;;;;;4.95;4.40;;;17.70;99.90;;;;;;5052077;28;20055;-73
2023/07/27 10:54:57;;;;;;;5.53;4.70;;;17.70;99.90;;;;;;5050271;28;20033;-74
2023/07/27 10:57:24;;;;;;;5.60;4.80;;;17.70;99.90;;;;;;5054534;28;20041;-76
2023/07/27 10:59:53;;;;;;;5.03;4.30;;;17.80;99.90;;;;;;5055081;28;20128;-74
2023/07/27 11:02:31;;;;;;;5.35;4.55;;;17.80;99.90;;;;;;5036941;28;20041;-74
2023/07/27 11:05:00;;;;;;;5.88;4.03;;;17.80;99.90;;;;;;5034345;28;20053;-75
2023/07/27 11:07:27;;;;;;;5.90;4.93;;;17.80;99.90;;;;;;5034452;28;20059;-74
2023/07/27 11:09:53;;;;;;;5.15;4.07;;;17.80;99.90;;;;;;5054140;28;20064;-75
2023/07/27 11:12:21;;;;;;;5.35;4.43;;;18.00;99.90;;;;;;5054986;28;20045;-75
2023/07/27 11:14:47;;;;;;;5.03;4.20;;;18.10;99.90;;;;;;5018499;28;20100;-72
2023/07/27 11:17:13;;;;;;;5.22;4.38;;;18.20;99.90;;;;;;5034960;28;20442;-72
2023/07/27 11:19:39;;;;;;;5.70;5.07;;;18.20;99.90;;;;;;5015741;28;20080;-72
2023/07/27 11:22:05;;;;;;;6.45;4.47;;;18.20;99.90;;;;;;5033258;28;20084;-72
2023/07/27 11:24:32;;;;;;;4.78;4.13;;;18.30;99.90;;;;;;5016339;28;20143;-73
2023/07/27 11:26:59;;;;;;;4.60;4.07;;;18.30;99.90;;;;;;5032819;28;20103;-72
2023/07/27 11:29:25;;;;;;;4.88;4.32;;;18.40;99.90;;;;;;5015171;28;20077;-72
2023/07/27 11:31:56;;;;;;;5.03;3.95;;;18.40;99.90;;;;;;5017020;28;20497;-70
2023/07/27 11:34:23;;;;;;;7.38;4.90;;;18.40;99.90;;;;;;5035421;28;20053;-72
2023/07/27 11:36:59;;;;;;;7.30;4.07;;;18.40;99.90;;;;;;5034488;28;20041;-72
2023/07/27 11:39:26;;;;;;;4.60;3.17;;;18.50;99.90;;;;;;5017128;28;20155;-72
2023/07/27 11:41:52;;;;;;;3.78;2.80;;;18.60;99.90;;;;;;5017608;28;20154;-72
2023/07/27 11:44:22;;;;;;;3.20;2.30;;;18.80;99.90;;;;;;5016324;28;20046;-73
2023/07/27 11:46:51;;;;;;;4.55;3.00;;;19.00;99.90;;;;;;5033782;28;20038;-71
2023/07/27 11:49:21;;;;;;;4.43;2.72;;;19.10;99.90;;;;;;5016539;28;20493;-72
2023/07/27 11:51:47;;;;;;;3.85;2.17;;;19.30;99.90;;;;;;5015628;28;20048;-72
2023/07/27 11:54:27;;;;;;;3.17;1.80;;;19.50;99.90;;;;;;5016988;28;20041;-71
2023/07/27 11:56:55;;;;;;;2.90;1.77;;;19.50;99.90;;;;;;5033113;28;20064;-72
2023/07/27 11:59:21;;;;;;;3.53;2.10;;;19.50;99.90;;;;;;5034281;28;20456;-72
2023/07/27 12:01:57;;;;;;;2.80;1.50;;;19.50;99.90;;;;;;5016371;28;20049;-72
2023/07/27 12:04:26;;;;;;;2.13;1.20;;;19.50;99.90;;;;;;5033545;28;20085;-73
2023/07/27 12:06:54;;;;;;;3.15;1.42;;;19.50;99.90;;;;;;5015978;28;20499;-72
2023/07/27 12:09:20;;;;;;;2.33;1.20;;;19.50;99.90;;;;;;5034525;28;20038;-72
2023/07/27 12:11:49;;;;;;;2.35;1.35;;;19.50;99.90;;;;;;5032483;28;20116;-72
2023/07/27 12:14:20;;;;;;;2.38;1.40;;;19.60;99.90;;;;;;5029368;28;20052;-72
2023/07/27 12:16:47;;;;;;;2.40;1.20;;;19.70;99.90;;;;;;5035988;28;20053;-72
2023/07/27 12:19:16;;;;;;;2.33;1.33;;;19.80;99.90;;;;;;5053511;28;20473;-72
2023/07/27 12:21:41;;;;;;;1.98;1.05;;;19.80;99.90;;;;;;5053617;28;20079;-72
2023/07/27 12:24:11;;;;;;;2.58;1.20;;;19.80;99.90;;;;;;5035825;28;20041;-72
2023/07/27 12:26:38;;;;;;;2.20;1.17;;;19.80;99.90;;;;;;5034734;28;20118;-72
2023/07/27 12:29:04;;;;;;;2.45;1.27;;;19.80;99.90;;;;;;5036179;28;20052;-72
2023/07/27 12:31:31;;;;;;;1.88;1.05;;;19.70;99.90;;;;;;5053826;28;20045;-72
2023/07/27 12:33:56;;;;;;;1.92;1.00;;;19.60;99.90;;;;;;5035499;28;20373;-72
2023/07/27 12:36:22;;;;;;;2.03;1.20;;;19.60;99.90;;;;;;5053123;28;20525;-72
2023/07/27 12:38:51;;;;;;;2.10;0.90;;;19.70;99.90;;;;;;5053421;28;20044;-72
2023/07/27 12:41:16;;;;;;;1.88;1.00;;;19.70;99.90;;;;;;5034920;28;20518;-72
2023/07/27 12:43:42;;;;;;;1.90;1.10;;;19.60;99.90;;;;;;5053096;28;20083;-71
2023/07/27 12:46:12;;;;;;;1.50;0.90;;;19.50;99.90;;;;;;5052365;28;20095;-71
2023/07/27 12:48:38;;;;;;;2.58;0.93;;;19.60;99.90;;;;;;5035089;28;20052;-72